sensor_id;sensor_type;location;lat;lon;timestamp;P1;durP1;ratioP1;P2;durP2;ratioP2
49217;SDS011;35045;51.194;7.268;2022-12-10T00:00:40;56.92;;;21.85;;
49217;SDS011;35045;51.194;7.268;2022-12-10T00:03:06;39.25;;;20.48;;
49217;SDS011;35045;51.194;7.268;2022-12-10T00:05:33;48.75;;;19.88;;
49217;SDS011;35045;51.194;7.268;2022-12-10T00:08:00;34.70;;;17.42;;
49217;SDS011;35045;51.194;7.268;2022-12-10T00:10:26;76.28;;;20.85;;
49217;SDS011;35045;51.194;7.268;2022-12-10T00:12:52;51.53;;;20.48;;
49217;SDS011;35045;51.194;7.268;2022-12-10T00:15:18;62.58;;;22.88;;
49217;SDS011;35045;51.194;7.268;2022-12-10T00:17:44;176.23;;;30.08;;
49217;SDS011;35045;51.194;7.268;2022-12-10T00:20:11;54.58;;;19.60;;
49217;SDS011;35045;51.194;7.268;2022-12-10T00:22:37;52.83;;;23.35;;
49217;SDS011;35045;51.194;7.268;2022-12-10T00:25:03;52.13;;;22.13;;
49217;SDS011;35045;51.194;7.268;2022-12-10T00:27:30;54.08;;;22.67;;
49217;SDS011;35045;51.194;7.268;2022-12-10T00:29:56;56.30;;;21.02;;
49217;SDS011;35045;51.194;7.268;2022-12-10T00:32:23;56.53;;;20.80;;
49217;SDS011;35045;51.194;7.268;2022-12-10T00:34:49;46.67;;;20.35;;
49217;SDS011;35045;51.194;7.268;2022-12-10T00:37:15;116.55;;;25.00;;
49217;SDS011;35045;51.194;7.268;2022-12-10T00:39:41;123.43;;;25.00;;
49217;SDS011;35045;51.194;7.268;2022-12-10T00:42:07;64.85;;;21.80;;
49217;SDS011;35045;51.194;7.268;2022-12-10T00:44:33;61.85;;;22.27;;
49217;SDS011;35045;51.194;7.268;2022-12-10T00:46:59;50.85;;;20.50;;
49217;SDS011;35045;51.194;7.268;2022-12-10T00:49:26;45.83;;;20.15;;
49217;SDS011;35045;51.194;7.268;2022-12-10T00:51:52;52.03;;;22.58;;
49217;SDS011;35045;51.194;7.268;2022-12-10T00:54:18;133.63;;;27.25;;
49217;SDS011;35045;51.194;7.268;2022-12-10T00:56:44;77.22;;;23.98;;
49217;SDS011;35045;51.194;7.268;2022-12-10T00:59:10;57.53;;;24.45;;
49217;SDS011;35045;51.194;7.268;2022-12-10T01:01:37;69.28;;;25.00;;
49217;SDS011;35045;51.194;7.268;2022-12-10T01:04:12;111.30;;;23.45;;
49217;SDS011;35045;51.194;7.268;2022-12-10T01:09:10;59.85;;;19.77;;
49217;SDS011;35045;51.194;7.268;2022-12-10T01:11:39;42.35;;;19.58;;
49217;SDS011;35045;51.194;7.268;2022-12-10T01:14:08;95.47;;;23.33;;
49217;SDS011;35045;51.194;7.268;2022-12-10T01:16:36;51.83;;;22.02;;
49217;SDS011;35045;51.194;7.268;2022-12-10T01:19:03;111.97;;;23.92;;
49217;SDS011;35045;51.194;7.268;2022-12-10T01:21:29;143.00;;;26.65;;
49217;SDS011;35045;51.194;7.268;2022-12-10T01:23:56;109.03;;;26.48;;
49217;SDS011;35045;51.194;7.268;2022-12-10T01:26:24;71.80;;;21.02;;
49217;SDS011;35045;51.194;7.268;2022-12-10T01:28:54;59.30;;;20.38;;
49217;SDS011;35045;51.194;7.268;2022-12-10T01:31:21;40.03;;;19.83;;
49217;SDS011;35045;51.194;7.268;2022-12-10T01:33:49;50.80;;;21.98;;
49217;SDS011;35045;51.194;7.268;2022-12-10T01:36:16;52.53;;;20.65;;
49217;SDS011;35045;51.194;7.268;2022-12-10T01:38:44;77.03;;;21.85;;
49217;SDS011;35045;51.194;7.268;2022-12-10T01:41:13;64.07;;;23.45;;
49217;SDS011;35045;51.194;7.268;2022-12-10T01:43:48;64.07;;;20.77;;
49217;SDS011;35045;51.194;7.268;2022-12-10T01:46:20;44.17;;;20.73;;
49217;SDS011;35045;51.194;7.268;2022-12-10T01:48:47;37.75;;;20.42;;
49217;SDS011;35045;51.194;7.268;2022-12-10T01:51:13;41.85;;;20.60;;
49217;SDS011;35045;51.194;7.268;2022-12-10T01:53:40;47.13;;;21.77;;
49217;SDS011;35045;51.194;7.268;2022-12-10T01:56:09;69.60;;;20.65;;
49217;SDS011;35045;51.194;7.268;2022-12-10T01:58:36;62.33;;;19.73;;
49217;SDS011;35045;51.194;7.268;2022-12-10T02:01:10;106.07;;;22.58;;
49217;SDS011;35045;51.194;7.268;2022-12-10T02:09:32;65.00;;;20.70;;
49217;SDS011;35045;51.194;7.268;2022-12-10T02:18:22;41.42;;;19.17;;
49217;SDS011;35045;51.194;7.268;2022-12-10T02:20:57;33.85;;;19.20;;
49217;SDS011;35045;51.194;7.268;2022-12-10T02:23:28;40.15;;;20.75;;
49217;SDS011;35045;51.194;7.268;2022-12-10T02:31:36;40.42;;;19.90;;
49217;SDS011;35045;51.194;7.268;2022-12-10T02:34:05;40.13;;;19.00;;
49217;SDS011;35045;51.194;7.268;2022-12-10T02:36:34;35.65;;;18.00;;
49217;SDS011;35045;51.194;7.268;2022-12-10T02:39:06;34.22;;;18.02;;
49217;SDS011;35045;51.194;7.268;2022-12-10T02:41:40;35.35;;;18.20;;
49217;SDS011;35045;51.194;7.268;2022-12-10T02:44:11;38.92;;;21.48;;
49217;SDS011;35045;51.194;7.268;2022-12-10T02:46:40;37.10;;;19.95;;
49217;SDS011;35045;51.194;7.268;2022-12-10T02:49:08;36.00;;;19.65;;
49217;SDS011;35045;51.194;7.268;2022-12-10T02:51:36;37.83;;;19.30;;
49217;SDS011;35045;51.194;7.268;2022-12-10T02:54:06;41.40;;;21.15;;
49217;SDS011;35045;51.194;7.268;2022-12-10T02:56:54;33.95;;;18.20;;
49217;SDS011;35045;51.194;7.268;2022-12-10T02:59:33;38.35;;;21.00;;
49217;SDS011;35045;51.194;7.268;2022-12-10T03:02:16;36.70;;;20.35;;
49217;SDS011;35045;51.194;7.268;2022-12-10T03:07:22;35.95;;;20.08;;
49217;SDS011;35045;51.194;7.268;2022-12-10T03:10:07;34.60;;;18.42;;
49217;SDS011;35045;51.194;7.268;2022-12-10T03:12:43;35.33;;;19.95;;
49217;SDS011;35045;51.194;7.268;2022-12-10T03:15:14;35.92;;;19.73;;
49217;SDS011;35045;51.194;7.268;2022-12-10T03:17:42;36.28;;;22.10;;
49217;SDS011;35045;51.194;7.268;2022-12-10T03:20:11;38.40;;;21.80;;
49217;SDS011;35045;51.194;7.268;2022-12-10T03:22:41;36.30;;;20.02;;
49217;SDS011;35045;51.194;7.268;2022-12-10T03:25:12;40.75;;;22.75;;
49217;SDS011;35045;51.194;7.268;2022-12-10T03:27:42;38.33;;;21.10;;
49217;SDS011;35045;51.194;7.268;2022-12-10T03:30:11;36.70;;;20.48;;
49217;SDS011;35045;51.194;7.268;2022-12-10T03:32:37;37.92;;;21.38;;
49217;SDS011;35045;51.194;7.268;2022-12-10T03:35:03;38.60;;;24.35;;
49217;SDS011;35045;51.194;7.268;2022-12-10T03:37:31;36.67;;;23.80;;
49217;SDS011;35045;51.194;7.268;2022-12-10T03:39:58;33.95;;;19.63;;
49217;SDS011;35045;51.194;7.268;2022-12-10T03:42:25;33.42;;;19.83;;
49217;SDS011;35045;51.194;7.268;2022-12-10T03:44:52;34.13;;;20.85;;
49217;SDS011;35045;51.194;7.268;2022-12-10T03:47:18;38.08;;;23.48;;
49217;SDS011;35045;51.194;7.268;2022-12-10T03:49:45;36.65;;;21.35;;
49217;SDS011;35045;51.194;7.268;2022-12-10T03:52:11;33.85;;;22.52;;
49217;SDS011;35045;51.194;7.268;2022-12-10T03:54:38;34.55;;;21.38;;
49217;SDS011;35045;51.194;7.268;2022-12-10T03:57:04;37.92;;;24.33;;
49217;SDS011;35045;51.194;7.268;2022-12-10T03:59:30;36.40;;;23.63;;
49217;SDS011;35045;51.194;7.268;2022-12-10T04:01:56;31.13;;;20.40;;
49217;SDS011;35045;51.194;7.268;2022-12-10T04:04:23;30.67;;;20.35;;
49217;SDS011;35045;51.194;7.268;2022-12-10T04:06:49;30.88;;;21.27;;
49217;SDS011;35045;51.194;7.268;2022-12-10T04:09:15;30.20;;;19.80;;
49217;SDS011;35045;51.194;7.268;2022-12-10T04:11:42;29.30;;;19.75;;
49217;SDS011;35045;51.194;7.268;2022-12-10T04:14:10;32.00;;;20.65;;
49217;SDS011;35045;51.194;7.268;2022-12-10T04:16:55;32.30;;;21.77;;
49217;SDS011;35045;51.194;7.268;2022-12-10T04:19:22;28.75;;;19.77;;
49217;SDS011;35045;51.194;7.268;2022-12-10T04:21:48;30.08;;;20.23;;
49217;SDS011;35045;51.194;7.268;2022-12-10T04:24:34;26.63;;;15.85;;
49217;SDS011;35045;51.194;7.268;2022-12-10T04:29:50;29.13;;;19.42;;
49217;SDS011;35045;51.194;7.268;2022-12-10T04:32:16;28.23;;;20.13;;
49217;SDS011;35045;51.194;7.268;2022-12-10T04:34:43;30.58;;;21.58;;
49217;SDS011;35045;51.194;7.268;2022-12-10T04:37:09;30.63;;;19.05;;
49217;SDS011;35045;51.194;7.268;2022-12-10T04:39:37;29.27;;;18.77;;
49217;SDS011;35045;51.194;7.268;2022-12-10T04:42:04;28.48;;;20.15;;
49217;SDS011;35045;51.194;7.268;2022-12-10T04:44:31;29.60;;;19.48;;
49217;SDS011;35045;51.194;7.268;2022-12-10T04:46:57;28.63;;;18.80;;
49217;SDS011;35045;51.194;7.268;2022-12-10T04:49:23;34.67;;;22.05;;
49217;SDS011;35045;51.194;7.268;2022-12-10T04:51:50;31.00;;;19.13;;
49217;SDS011;35045;51.194;7.268;2022-12-10T04:54:18;27.00;;;17.52;;
49217;SDS011;35045;51.194;7.268;2022-12-10T04:56:45;28.38;;;17.63;;
49217;SDS011;35045;51.194;7.268;2022-12-10T04:59:11;25.83;;;16.83;;
49217;SDS011;35045;51.194;7.268;2022-12-10T05:01:38;28.38;;;16.27;;
49217;SDS011;35045;51.194;7.268;2022-12-10T05:04:05;29.15;;;18.05;;
49217;SDS011;35045;51.194;7.268;2022-12-10T05:06:32;33.85;;;22.10;;
49217;SDS011;35045;51.194;7.268;2022-12-10T05:08:59;32.55;;;21.60;;
49217;SDS011;35045;51.194;7.268;2022-12-10T05:11:27;27.63;;;17.63;;
49217;SDS011;35045;51.194;7.268;2022-12-10T05:13:55;28.55;;;17.05;;
49217;SDS011;35045;51.194;7.268;2022-12-10T05:16:22;29.77;;;21.05;;
49217;SDS011;35045;51.194;7.268;2022-12-10T05:18:50;26.98;;;16.65;;
49217;SDS011;35045;51.194;7.268;2022-12-10T05:21:17;26.02;;;17.88;;
49217;SDS011;35045;51.194;7.268;2022-12-10T05:23:45;26.15;;;15.68;;
49217;SDS011;35045;51.194;7.268;2022-12-10T05:26:20;25.92;;;16.52;;
49217;SDS011;35045;51.194;7.268;2022-12-10T05:28:52;26.92;;;17.17;;
49217;SDS011;35045;51.194;7.268;2022-12-10T05:31:23;30.42;;;18.58;;
49217;SDS011;35045;51.194;7.268;2022-12-10T05:33:50;25.33;;;16.73;;
49217;SDS011;35045;51.194;7.268;2022-12-10T05:36:18;26.50;;;16.20;;
49217;SDS011;35045;51.194;7.268;2022-12-10T05:38:46;27.08;;;16.67;;
49217;SDS011;35045;51.194;7.268;2022-12-10T05:41:14;27.42;;;15.80;;
49217;SDS011;35045;51.194;7.268;2022-12-10T05:43:43;26.27;;;14.82;;
49217;SDS011;35045;51.194;7.268;2022-12-10T05:46:11;21.90;;;15.18;;
49217;SDS011;35045;51.194;7.268;2022-12-10T05:48:39;26.92;;;15.35;;
49217;SDS011;35045;51.194;7.268;2022-12-10T05:51:07;26.13;;;16.50;;
49217;SDS011;35045;51.194;7.268;2022-12-10T05:53:37;24.30;;;14.27;;
49217;SDS011;35045;51.194;7.268;2022-12-10T05:56:06;26.15;;;15.43;;
49217;SDS011;35045;51.194;7.268;2022-12-10T05:58:34;23.17;;;14.75;;
49217;SDS011;35045;51.194;7.268;2022-12-10T06:01:05;24.20;;;16.55;;
49217;SDS011;35045;51.194;7.268;2022-12-10T06:03:32;24.35;;;15.98;;
49217;SDS011;35045;51.194;7.268;2022-12-10T06:05:58;26.58;;;15.88;;
49217;SDS011;35045;51.194;7.268;2022-12-10T06:08:25;28.38;;;17.58;;
49217;SDS011;35045;51.194;7.268;2022-12-10T06:10:51;24.38;;;16.35;;
49217;SDS011;35045;51.194;7.268;2022-12-10T06:13:17;25.52;;;16.60;;
49217;SDS011;35045;51.194;7.268;2022-12-10T06:15:43;26.45;;;17.00;;
49217;SDS011;35045;51.194;7.268;2022-12-10T06:18:09;22.35;;;14.70;;
49217;SDS011;35045;51.194;7.268;2022-12-10T06:20:38;25.90;;;16.05;;
49217;SDS011;35045;51.194;7.268;2022-12-10T06:23:07;25.27;;;17.52;;
49217;SDS011;35045;51.194;7.268;2022-12-10T06:25:33;25.40;;;16.98;;
49217;SDS011;35045;51.194;7.268;2022-12-10T06:27:59;25.13;;;16.35;;
49217;SDS011;35045;51.194;7.268;2022-12-10T06:30:25;27.15;;;16.70;;
49217;SDS011;35045;51.194;7.268;2022-12-10T06:32:51;26.80;;;16.35;;
49217;SDS011;35045;51.194;7.268;2022-12-10T06:35:17;23.17;;;15.43;;
49217;SDS011;35045;51.194;7.268;2022-12-10T06:37:44;21.90;;;14.32;;
49217;SDS011;35045;51.194;7.268;2022-12-10T06:40:10;24.55;;;15.35;;
49217;SDS011;35045;51.194;7.268;2022-12-10T06:42:36;25.23;;;16.83;;
49217;SDS011;35045;51.194;7.268;2022-12-10T06:45:03;26.23;;;17.95;;
49217;SDS011;35045;51.194;7.268;2022-12-10T06:47:29;23.60;;;14.98;;
49217;SDS011;35045;51.194;7.268;2022-12-10T06:49:55;22.75;;;14.57;;
49217;SDS011;35045;51.194;7.268;2022-12-10T06:52:21;25.77;;;17.00;;
49217;SDS011;35045;51.194;7.268;2022-12-10T06:54:48;23.52;;;14.73;;
49217;SDS011;35045;51.194;7.268;2022-12-10T06:57:14;23.95;;;14.65;;
49217;SDS011;35045;51.194;7.268;2022-12-10T06:59:40;22.63;;;14.90;;
49217;SDS011;35045;51.194;7.268;2022-12-10T07:02:07;26.77;;;17.48;;
49217;SDS011;35045;51.194;7.268;2022-12-10T07:04:35;26.33;;;16.23;;
49217;SDS011;35045;51.194;7.268;2022-12-10T07:07:01;22.15;;;14.88;;
49217;SDS011;35045;51.194;7.268;2022-12-10T07:09:29;24.63;;;15.00;;
49217;SDS011;35045;51.194;7.268;2022-12-10T07:11:57;26.00;;;16.85;;
49217;SDS011;35045;51.194;7.268;2022-12-10T07:14:23;25.35;;;16.65;;
49217;SDS011;35045;51.194;7.268;2022-12-10T07:16:49;25.60;;;17.70;;
49217;SDS011;35045;51.194;7.268;2022-12-10T07:19:16;25.40;;;17.27;;
49217;SDS011;35045;51.194;7.268;2022-12-10T07:21:42;24.02;;;17.70;;
49217;SDS011;35045;51.194;7.268;2022-12-10T07:24:10;28.02;;;19.30;;
49217;SDS011;35045;51.194;7.268;2022-12-10T07:26:40;24.65;;;16.20;;
49217;SDS011;35045;51.194;7.268;2022-12-10T07:29:09;23.83;;;15.60;;
49217;SDS011;35045;51.194;7.268;2022-12-10T07:31:37;23.27;;;15.77;;
49217;SDS011;35045;51.194;7.268;2022-12-10T07:34:03;23.05;;;15.02;;
49217;SDS011;35045;51.194;7.268;2022-12-10T07:36:30;26.38;;;16.52;;
49217;SDS011;35045;51.194;7.268;2022-12-10T07:38:56;23.25;;;16.10;;
49217;SDS011;35045;51.194;7.268;2022-12-10T07:41:23;26.48;;;17.27;;
49217;SDS011;35045;51.194;7.268;2022-12-10T07:43:49;24.40;;;15.85;;
49217;SDS011;35045;51.194;7.268;2022-12-10T07:46:17;25.77;;;15.43;;
49217;SDS011;35045;51.194;7.268;2022-12-10T07:48:49;24.35;;;15.55;;
49217;SDS011;35045;51.194;7.268;2022-12-10T07:51:16;25.67;;;17.50;;
49217;SDS011;35045;51.194;7.268;2022-12-10T07:53:44;26.75;;;17.55;;
49217;SDS011;35045;51.194;7.268;2022-12-10T07:56:10;27.80;;;17.92;;
49217;SDS011;35045;51.194;7.268;2022-12-10T07:58:37;24.27;;;16.48;;
49217;SDS011;35045;51.194;7.268;2022-12-10T08:01:11;26.33;;;16.73;;
49217;SDS011;35045;51.194;7.268;2022-12-10T08:03:39;21.73;;;15.23;;
49217;SDS011;35045;51.194;7.268;2022-12-10T08:06:10;26.05;;;17.83;;
49217;SDS011;35045;51.194;7.268;2022-12-10T08:08:39;24.40;;;15.95;;
49217;SDS011;35045;51.194;7.268;2022-12-10T08:11:06;26.73;;;15.75;;
49217;SDS011;35045;51.194;7.268;2022-12-10T08:13:33;27.38;;;18.80;;
49217;SDS011;35045;51.194;7.268;2022-12-10T08:16:03;25.30;;;17.65;;
49217;SDS011;35045;51.194;7.268;2022-12-10T08:18:31;27.15;;;17.95;;
49217;SDS011;35045;51.194;7.268;2022-12-10T08:20:58;23.55;;;15.65;;
49217;SDS011;35045;51.194;7.268;2022-12-10T08:23:28;22.60;;;14.77;;
49217;SDS011;35045;51.194;7.268;2022-12-10T08:25:54;24.20;;;15.02;;
49217;SDS011;35045;51.194;7.268;2022-12-10T08:28:20;27.73;;;18.90;;
49217;SDS011;35045;51.194;7.268;2022-12-10T08:30:47;26.75;;;16.90;;
49217;SDS011;35045;51.194;7.268;2022-12-10T08:33:14;28.27;;;19.58;;
49217;SDS011;35045;51.194;7.268;2022-12-10T08:35:41;27.67;;;19.13;;
49217;SDS011;35045;51.194;7.268;2022-12-10T08:38:07;32.25;;;18.15;;
49217;SDS011;35045;51.194;7.268;2022-12-10T08:40:33;24.50;;;17.08;;
49217;SDS011;35045;51.194;7.268;2022-12-10T08:42:59;25.90;;;18.00;;
49217;SDS011;35045;51.194;7.268;2022-12-10T08:45:25;24.63;;;15.38;;
49217;SDS011;35045;51.194;7.268;2022-12-10T08:47:51;29.42;;;18.85;;
49217;SDS011;35045;51.194;7.268;2022-12-10T08:50:18;30.67;;;20.25;;
49217;SDS011;35045;51.194;7.268;2022-12-10T08:52:44;26.85;;;19.02;;
49217;SDS011;35045;51.194;7.268;2022-12-10T08:55:11;26.48;;;17.75;;
49217;SDS011;35045;51.194;7.268;2022-12-10T08:57:37;26.65;;;17.80;;
49217;SDS011;35045;51.194;7.268;2022-12-10T09:00:04;25.92;;;17.00;;
49217;SDS011;35045;51.194;7.268;2022-12-10T09:02:32;25.52;;;16.98;;
49217;SDS011;35045;51.194;7.268;2022-12-10T09:04:58;25.63;;;17.38;;
49217;SDS011;35045;51.194;7.268;2022-12-10T09:07:24;26.73;;;18.50;;
49217;SDS011;35045;51.194;7.268;2022-12-10T09:09:50;29.42;;;20.45;;
49217;SDS011;35045;51.194;7.268;2022-12-10T09:12:16;27.15;;;19.27;;
49217;SDS011;35045;51.194;7.268;2022-12-10T09:14:42;29.15;;;18.00;;
49217;SDS011;35045;51.194;7.268;2022-12-10T09:17:09;28.85;;;20.05;;
49217;SDS011;35045;51.194;7.268;2022-12-10T09:19:35;30.73;;;20.67;;
49217;SDS011;35045;51.194;7.268;2022-12-10T09:22:01;28.67;;;17.38;;
49217;SDS011;35045;51.194;7.268;2022-12-10T09:24:27;28.35;;;17.52;;
49217;SDS011;35045;51.194;7.268;2022-12-10T09:26:53;33.60;;;20.50;;
49217;SDS011;35045;51.194;7.268;2022-12-10T09:29:19;29.98;;;19.33;;
49217;SDS011;35045;51.194;7.268;2022-12-10T09:31:49;27.42;;;18.35;;
49217;SDS011;35045;51.194;7.268;2022-12-10T09:34:16;31.88;;;20.70;;
49217;SDS011;35045;51.194;7.268;2022-12-10T09:36:42;26.83;;;18.45;;
49217;SDS011;35045;51.194;7.268;2022-12-10T09:39:08;30.55;;;19.77;;
49217;SDS011;35045;51.194;7.268;2022-12-10T09:41:38;29.55;;;20.83;;
49217;SDS011;35045;51.194;7.268;2022-12-10T09:47:20;30.27;;;18.85;;
49217;SDS011;35045;51.194;7.268;2022-12-10T09:52:59;36.65;;;23.40;;
49217;SDS011;35045;51.194;7.268;2022-12-10T09:55:32;32.92;;;22.38;;
49217;SDS011;35045;51.194;7.268;2022-12-10T09:58:04;38.08;;;23.45;;
49217;SDS011;35045;51.194;7.268;2022-12-10T10:00:38;35.42;;;22.38;;
49217;SDS011;35045;51.194;7.268;2022-12-10T10:03:09;35.38;;;21.40;;
49217;SDS011;35045;51.194;7.268;2022-12-10T10:05:48;33.22;;;20.55;;
49217;SDS011;35045;51.194;7.268;2022-12-10T10:10:55;33.83;;;21.15;;
49217;SDS011;35045;51.194;7.268;2022-12-10T10:13:26;32.97;;;21.35;;
49217;SDS011;35045;51.194;7.268;2022-12-10T10:16:12;38.50;;;22.73;;
49217;SDS011;35045;51.194;7.268;2022-12-10T10:18:43;35.28;;;22.92;;
49217;SDS011;35045;51.194;7.268;2022-12-10T10:21:19;37.13;;;24.00;;
49217;SDS011;35045;51.194;7.268;2022-12-10T10:23:49;37.75;;;21.63;;
49217;SDS011;35045;51.194;7.268;2022-12-10T10:26:15;38.50;;;23.15;;
49217;SDS011;35045;51.194;7.268;2022-12-10T10:28:41;36.67;;;23.38;;
49217;SDS011;35045;51.194;7.268;2022-12-10T10:31:20;37.63;;;24.05;;
49217;SDS011;35045;51.194;7.268;2022-12-10T10:33:50;36.47;;;23.75;;
49217;SDS011;35045;51.194;7.268;2022-12-10T10:36:22;32.90;;;20.92;;
49217;SDS011;35045;51.194;7.268;2022-12-10T10:38:50;39.47;;;24.10;;
49217;SDS011;35045;51.194;7.268;2022-12-10T10:41:17;36.92;;;22.77;;
49217;SDS011;35045;51.194;7.268;2022-12-10T10:43:43;40.50;;;23.15;;
49217;SDS011;35045;51.194;7.268;2022-12-10T10:46:11;33.20;;;22.20;;
49217;SDS011;35045;51.194;7.268;2022-12-10T10:48:48;35.00;;;22.70;;
49217;SDS011;35045;51.194;7.268;2022-12-10T10:51:15;37.45;;;23.30;;
49217;SDS011;35045;51.194;7.268;2022-12-10T10:53:52;35.83;;;22.67;;
49217;SDS011;35045;51.194;7.268;2022-12-10T10:59:04;41.38;;;21.95;;
49217;SDS011;35045;51.194;7.268;2022-12-10T11:01:55;35.60;;;22.00;;
49217;SDS011;35045;51.194;7.268;2022-12-10T11:04:36;39.10;;;23.88;;
49217;SDS011;35045;51.194;7.268;2022-12-10T11:07:19;39.72;;;24.80;;
49217;SDS011;35045;51.194;7.268;2022-12-10T11:09:55;36.05;;;22.92;;
49217;SDS011;35045;51.194;7.268;2022-12-10T11:12:30;38.92;;;24.92;;
49217;SDS011;35045;51.194;7.268;2022-12-10T11:17:52;41.05;;;24.15;;
49217;SDS011;35045;51.194;7.268;2022-12-10T11:20:21;39.45;;;25.25;;
49217;SDS011;35045;51.194;7.268;2022-12-10T11:23:37;44.70;;;28.17;;
49217;SDS011;35045;51.194;7.268;2022-12-10T11:25:52;38.75;;;25.30;;
49217;SDS011;35045;51.194;7.268;2022-12-10T11:31:44;38.50;;;24.65;;
49217;SDS011;35045;51.194;7.268;2022-12-10T11:37:32;38.55;;;24.35;;
49217;SDS011;35045;51.194;7.268;2022-12-10T11:43:00;38.65;;;22.63;;
49217;SDS011;35045;51.194;7.268;2022-12-10T12:00:19;41.33;;;23.00;;
49217;SDS011;35045;51.194;7.268;2022-12-10T12:03:01;36.95;;;24.50;;
49217;SDS011;35045;51.194;7.268;2022-12-10T12:08:37;43.63;;;29.30;;
49217;SDS011;35045;51.194;7.268;2022-12-10T12:11:46;36.72;;;23.50;;
49217;SDS011;35045;51.194;7.268;2022-12-10T12:14:24;39.35;;;23.98;;
49217;SDS011;35045;51.194;7.268;2022-12-10T12:19:46;36.67;;;23.08;;
49217;SDS011;35045;51.194;7.268;2022-12-10T12:22:26;41.17;;;25.50;;
49217;SDS011;35045;51.194;7.268;2022-12-10T12:24:58;40.97;;;26.30;;
49217;SDS011;35045;51.194;7.268;2022-12-10T12:27:30;47.47;;;30.98;;
49217;SDS011;35045;51.194;7.268;2022-12-10T12:30:11;46.92;;;28.95;;
49217;SDS011;35045;51.194;7.268;2022-12-10T12:35:36;40.75;;;24.38;;
49217;SDS011;35045;51.194;7.268;2022-12-10T12:38:18;44.58;;;27.35;;
49217;SDS011;35045;51.194;7.268;2022-12-10T12:41:04;45.28;;;26.80;;
49217;SDS011;35045;51.194;7.268;2022-12-10T12:46:09;40.17;;;26.95;;
49217;SDS011;35045;51.194;7.268;2022-12-10T12:49:02;44.40;;;27.13;;
49217;SDS011;35045;51.194;7.268;2022-12-10T12:51:36;43.75;;;27.85;;
49217;SDS011;35045;51.194;7.268;2022-12-10T12:54:07;46.38;;;29.85;;
49217;SDS011;35045;51.194;7.268;2022-12-10T13:05:02;50.35;;;30.50;;
49217;SDS011;35045;51.194;7.268;2022-12-10T13:07:30;46.13;;;29.23;;
49217;SDS011;35045;51.194;7.268;2022-12-10T13:12:49;47.75;;;29.33;;
49217;SDS011;35045;51.194;7.268;2022-12-10T13:15:34;45.97;;;28.27;;
49217;SDS011;35045;51.194;7.268;2022-12-10T13:23:52;42.08;;;27.25;;
49217;SDS011;35045;51.194;7.268;2022-12-10T13:28:54;45.35;;;29.65;;
49217;SDS011;35045;51.194;7.268;2022-12-10T13:31:36;49.60;;;29.23;;
49217;SDS011;35045;51.194;7.268;2022-12-10T13:34:05;40.92;;;25.65;;
49217;SDS011;35045;51.194;7.268;2022-12-10T13:45:03;39.83;;;25.15;;
49217;SDS011;35045;51.194;7.268;2022-12-10T13:47:50;38.33;;;23.77;;
49217;SDS011;35045;51.194;7.268;2022-12-10T13:50:19;48.83;;;28.45;;
49217;SDS011;35045;51.194;7.268;2022-12-10T13:52:59;48.45;;;28.00;;
49217;SDS011;35045;51.194;7.268;2022-12-10T13:58:23;45.25;;;28.10;;
49217;SDS011;35045;51.194;7.268;2022-12-10T14:06:13;47.25;;;29.38;;
49217;SDS011;35045;51.194;7.268;2022-12-10T14:09:06;51.55;;;31.17;;
49217;SDS011;35045;51.194;7.268;2022-12-10T14:11:38;42.85;;;26.88;;
49217;SDS011;35045;51.194;7.268;2022-12-10T14:14:15;46.15;;;29.45;;
49217;SDS011;35045;51.194;7.268;2022-12-10T14:16:52;45.47;;;28.33;;
49217;SDS011;35045;51.194;7.268;2022-12-10T14:19:21;48.45;;;28.88;;
49217;SDS011;35045;51.194;7.268;2022-12-10T14:21:53;46.67;;;28.95;;
49217;SDS011;35045;51.194;7.268;2022-12-10T14:26:57;44.42;;;27.52;;
49217;SDS011;35045;51.194;7.268;2022-12-10T14:29:26;42.67;;;26.92;;
49217;SDS011;35045;51.194;7.268;2022-12-10T14:31:54;47.47;;;28.27;;
49217;SDS011;35045;51.194;7.268;2022-12-10T14:34:24;46.65;;;27.33;;
49217;SDS011;35045;51.194;7.268;2022-12-10T14:36:54;43.08;;;25.55;;
49217;SDS011;35045;51.194;7.268;2022-12-10T14:39:28;45.78;;;27.63;;
49217;SDS011;35045;51.194;7.268;2022-12-10T14:41:58;41.55;;;24.88;;
49217;SDS011;35045;51.194;7.268;2022-12-10T14:44:27;44.28;;;27.60;;
49217;SDS011;35045;51.194;7.268;2022-12-10T14:47:03;40.83;;;27.83;;
49217;SDS011;35045;51.194;7.268;2022-12-10T14:49:31;43.10;;;26.33;;
49217;SDS011;35045;51.194;7.268;2022-12-10T14:51:57;44.95;;;27.95;;
49217;SDS011;35045;51.194;7.268;2022-12-10T14:54:35;45.33;;;26.55;;
49217;SDS011;35045;51.194;7.268;2022-12-10T14:57:04;43.20;;;26.88;;
49217;SDS011;35045;51.194;7.268;2022-12-10T14:59:35;42.95;;;27.33;;
49217;SDS011;35045;51.194;7.268;2022-12-10T15:02:14;41.72;;;25.48;;
49217;SDS011;35045;51.194;7.268;2022-12-10T15:04:46;43.03;;;26.90;;
49217;SDS011;35045;51.194;7.268;2022-12-10T15:07:14;46.33;;;27.48;;
49217;SDS011;35045;51.194;7.268;2022-12-10T15:09:47;44.97;;;27.15;;
49217;SDS011;35045;51.194;7.268;2022-12-10T15:12:19;45.72;;;29.63;;
49217;SDS011;35045;51.194;7.268;2022-12-10T15:14:53;49.45;;;29.33;;
49217;SDS011;35045;51.194;7.268;2022-12-10T15:17:38;53.80;;;31.00;;
49217;SDS011;35045;51.194;7.268;2022-12-10T15:20:20;54.30;;;32.40;;
49217;SDS011;35045;51.194;7.268;2022-12-10T15:22:48;49.15;;;28.95;;
49217;SDS011;35045;51.194;7.268;2022-12-10T15:25:25;48.50;;;30.35;;
49217;SDS011;35045;51.194;7.268;2022-12-10T15:28:00;53.53;;;30.73;;
49217;SDS011;35045;51.194;7.268;2022-12-10T15:30:38;53.53;;;32.08;;
49217;SDS011;35045;51.194;7.268;2022-12-10T15:33:16;50.38;;;30.50;;
49217;SDS011;35045;51.194;7.268;2022-12-10T15:35:53;52.33;;;33.97;;
49217;SDS011;35045;51.194;7.268;2022-12-10T15:38:21;51.72;;;31.98;;
49217;SDS011;35045;51.194;7.268;2022-12-10T15:40:48;52.55;;;33.13;;
49217;SDS011;35045;51.194;7.268;2022-12-10T15:45:55;50.67;;;32.83;;
49217;SDS011;35045;51.194;7.268;2022-12-10T15:48:22;47.60;;;29.20;;
49217;SDS011;35045;51.194;7.268;2022-12-10T15:50:51;50.85;;;30.00;;
49217;SDS011;35045;51.194;7.268;2022-12-10T15:53:27;53.80;;;31.70;;
49217;SDS011;35045;51.194;7.268;2022-12-10T15:56:01;47.47;;;30.08;;
49217;SDS011;35045;51.194;7.268;2022-12-10T15:58:28;50.78;;;30.58;;
49217;SDS011;35045;51.194;7.268;2022-12-10T16:00:54;49.20;;;29.70;;
49217;SDS011;35045;51.194;7.268;2022-12-10T16:03:20;45.10;;;28.90;;
49217;SDS011;35045;51.194;7.268;2022-12-10T16:05:53;46.80;;;29.30;;
49217;SDS011;35045;51.194;7.268;2022-12-10T16:08:23;49.53;;;29.63;;
49217;SDS011;35045;51.194;7.268;2022-12-10T16:10:54;47.75;;;28.33;;
49217;SDS011;35045;51.194;7.268;2022-12-10T16:13:28;47.00;;;28.05;;
49217;SDS011;35045;51.194;7.268;2022-12-10T16:16:04;52.28;;;32.63;;
49217;SDS011;35045;51.194;7.268;2022-12-10T16:18:32;43.95;;;27.30;;
49217;SDS011;35045;51.194;7.268;2022-12-10T16:21:01;46.38;;;29.45;;
49217;SDS011;35045;51.194;7.268;2022-12-10T16:23:30;49.17;;;29.45;;
49217;SDS011;35045;51.194;7.268;2022-12-10T16:25:56;52.38;;;31.75;;
49217;SDS011;35045;51.194;7.268;2022-12-10T16:28:23;53.75;;;33.72;;
49217;SDS011;35045;51.194;7.268;2022-12-10T16:30:51;47.92;;;30.35;;
49217;SDS011;35045;51.194;7.268;2022-12-10T16:33:23;49.92;;;32.10;;